createdAt,value
2018-07-14T00:00:03.547Z,12.05
2018-07-14T00:05:03.554Z,11.92
2018-07-14T00:10:03.597Z,11.86
2018-07-14T00:15:03.559Z,11.84
2018-07-14T00:20:03.554Z,11.79
2018-07-14T00:25:03.580Z,11.68
2018-07-14T00:30:03.559Z,11.59
2018-07-14T00:35:03.566Z,11.53
2018-07-14T00:40:03.582Z,11.41
2018-07-14T00:45:03.568Z,11.31
2018-07-14T00:50:03.574Z,11.22
2018-07-14T00:55:03.577Z,11.18
2018-07-14T01:00:03.595Z,11.08
2018-07-14T01:05:03.578Z,11.04
2018-07-14T01:10:03.583Z,10.94
2018-07-14T01:15:03.591Z,10.84
2018-07-14T01:20:03.590Z,10.85
2018-07-14T01:25:03.593Z,10.82
2018-07-14T01:30:03.602Z,10.78
2018-07-14T01:35:03.595Z,10.73
2018-07-14T01:40:03.598Z,10.73
2018-07-14T01:45:03.605Z,10.68
2018-07-14T01:50:03.607Z,10.64
2018-07-14T01:55:03.610Z,10.56
2018-07-14T02:00:03.611Z,10.54
2018-07-14T02:05:03.633Z,10.49
2018-07-14T02:10:03.617Z,10.43
2018-07-14T02:15:03.617Z,10.4
2018-07-14T02:20:03.637Z,10.29
2018-07-14T02:25:03.625Z,10.23
2018-07-14T02:30:03.634Z,10.26
2018-07-14T02:35:03.635Z,10.3
2018-07-14T02:40:03.636Z,10.35
2018-07-14T02:45:03.635Z,10.41
2018-07-14T02:50:03.652Z,10.63
2018-07-14T02:55:03.646Z,10.79
2018-07-14T03:00:03.647Z,10.66
2018-07-14T03:05:03.671Z,10.5
2018-07-14T03:10:03.655Z,10.37
2018-07-14T03:15:03.657Z,10.21
2018-07-14T03:20:03.666Z,10.06
2018-07-14T03:25:03.659Z,9.95
2018-07-14T03:30:03.667Z,9.86
2018-07-14T03:35:03.672Z,9.82
2018-07-14T03:40:03.670Z,9.94
2018-07-14T03:45:03.672Z,9.97
2018-07-14T03:50:03.696Z,9.97
2018-07-14T03:55:03.680Z,10.15
2018-07-14T04:00:03.681Z,10.23
2018-07-14T04:05:03.698Z,10.3
2018-07-14T04:10:03.686Z,10.59
2018-07-14T04:15:03.696Z,10.96
2018-07-14T04:20:03.711Z,11.12
2018-07-14T04:25:03.698Z,11.09
2018-07-14T04:30:03.720Z,11.11
2018-07-14T04:35:03.710Z,11.15
2018-07-14T04:40:03.721Z,11.25
2018-07-14T04:45:03.714Z,11.31
2018-07-14T04:50:03.716Z,11.44
2018-07-14T04:55:03.719Z,11.51
2018-07-14T05:00:03.734Z,11.73
2018-07-14T05:05:03.743Z,11.87
2018-07-14T05:10:03.727Z,11.92
2018-07-14T05:15:03.737Z,11.92
2018-07-14T05:20:03.731Z,12.02
2018-07-14T05:25:03.740Z,12.2
2018-07-14T05:30:03.733Z,12.34
2018-07-14T05:35:03.742Z,12.5
2018-07-14T05:40:03.740Z,12.78
2018-07-14T05:45:03.739Z,12.95
2018-07-14T05:50:03.766Z,13.04
2018-07-14T05:55:03.744Z,13.15
2018-07-14T06:00:03.758Z,13.47
2018-07-14T06:05:03.758Z,13.84
2018-07-14T06:10:03.768Z,13.98
2018-07-14T06:15:03.755Z,14.17
2018-07-14T06:20:03.766Z,14.47
2018-07-14T06:25:03.763Z,14.77
2018-07-14T06:30:03.761Z,14.98
2018-07-14T06:35:03.767Z,15.17
2018-07-14T06:40:03.771Z,15.62
2018-07-14T06:45:03.775Z,16.49
2018-07-14T06:50:03.768Z,17.31
2018-07-14T06:55:03.786Z,17.99
2018-07-14T07:00:03.789Z,18.8
2018-07-14T07:05:03.790Z,18.93
2018-07-14T07:10:03.787Z,18.79
2018-07-14T07:15:03.793Z,18.92
2018-07-14T07:20:03.796Z,18.99
2018-07-14T07:25:03.790Z,18.8
2018-07-14T07:30:03.800Z,19.22
2018-07-14T07:35:03.814Z,19.65
2018-07-14T07:40:03.799Z,19.6
2018-07-14T07:45:03.808Z,19.81
2018-07-14T07:50:03.807Z,19.69
2018-07-14T07:55:03.807Z,19.47
2018-07-14T08:00:03.819Z,20.1
2018-07-14T08:05:03.809Z,22.34
2018-07-14T08:10:03.818Z,23.79
2018-07-14T08:15:03.883Z,25.17
2018-07-14T08:20:03.831Z,24.8
2018-07-14T08:25:03.822Z,25.17
2018-07-14T08:30:03.833Z,24.77
2018-07-14T08:35:03.826Z,24.53
2018-07-14T08:40:03.846Z,22.83
2018-07-14T08:45:03.836Z,22.47
2018-07-14T08:50:03.836Z,23.94
2018-07-14T08:55:03.858Z,24.13
2018-07-14T09:00:03.864Z,24.84
2018-07-14T09:05:03.850Z,24.12
2018-07-14T09:10:03.849Z,24.7
2018-07-14T09:15:03.859Z,25.99
2018-07-14T09:20:03.860Z,26.64
2018-07-14T09:25:03.867Z,25.03
2018-07-14T09:30:03.872Z,24.6
2018-07-14T09:35:03.866Z,26.69
2018-07-14T09:40:03.888Z,27.84
2018-07-14T09:45:03.876Z,26.93
2018-07-14T09:50:03.868Z,26.31
2018-07-14T09:55:03.909Z,26.49
2018-07-14T10:00:03.882Z,27.47
2018-07-14T10:05:03.880Z,28.58
2018-07-14T10:10:03.928Z,27.6
2018-07-14T10:15:03.950Z,26.64
2018-07-14T10:20:03.887Z,27
2018-07-14T10:25:03.946Z,26.57
2018-07-14T10:30:03.900Z,25.56
2018-07-14T10:35:04.064Z,24.95
2018-07-14T10:40:03.902Z,25.25
2018-07-14T10:45:03.901Z,26.16
2018-07-14T10:50:03.919Z,26.9
2018-07-14T10:55:03.926Z,27.7
2018-07-14T11:00:03.905Z,26.94
2018-07-14T11:05:03.922Z,27.44
2018-07-14T11:10:03.909Z,29.18
2018-07-14T11:15:03.921Z,29.3
2018-07-14T11:20:03.922Z,28.7
2018-07-14T11:25:03.922Z,28.92
2018-07-14T11:30:03.940Z,29.76
2018-07-14T11:35:03.927Z,30
2018-07-14T11:40:03.927Z,29.76
2018-07-14T11:45:03.947Z,28.59
2018-07-14T11:50:03.936Z,28.5
2018-07-14T11:55:04.044Z,27.55
2018-07-14T12:00:03.944Z,27.41
2018-07-14T12:05:03.948Z,28.7
2018-07-14T12:10:03.945Z,30.97
2018-07-14T12:15:03.958Z,33.81
2018-07-14T12:20:03.973Z,34.63
2018-07-14T12:25:03.958Z,35.24
2018-07-14T12:30:03.967Z,35.78
2018-07-14T12:35:03.961Z,37.47
2018-07-14T12:40:03.960Z,38.52
2018-07-14T12:45:03.974Z,39.54
2018-07-14T12:50:03.973Z,38.07
2018-07-14T12:55:03.974Z,38.83
2018-07-14T13:00:04.086Z,38.08
2018-07-14T13:05:03.977Z,35.33
2018-07-14T13:10:03.977Z,36.99
2018-07-14T13:15:03.986Z,37.07
2018-07-14T13:20:03.994Z,38.03
2018-07-14T13:25:03.992Z,35.96
2018-07-14T13:30:03.994Z,33.05
2018-07-14T13:35:03.992Z,31.07
2018-07-14T13:40:04.001Z,30.04
2018-07-14T13:45:04.014Z,29.5
2018-07-14T13:50:04.003Z,29.34
2018-07-14T13:55:04.003Z,28.19
2018-07-14T14:00:04.011Z,28.57
2018-07-14T14:05:04.007Z,29.03
2018-07-14T14:10:04.017Z,29.64
2018-07-14T14:15:04.015Z,30.91
2018-07-14T14:20:04.054Z,31.7
2018-07-14T14:25:04.032Z,31.82
2018-07-14T14:30:04.026Z,32.17
2018-07-14T14:35:04.033Z,33.66
2018-07-14T14:40:04.034Z,32.91
2018-07-14T14:45:04.029Z,31.95
2018-07-14T14:50:04.034Z,34.32
2018-07-14T14:55:04.072Z,35.94
2018-07-14T15:00:04.089Z,34.8
2018-07-14T15:05:04.038Z,35.88
2018-07-14T15:10:04.066Z,38.61
2018-07-14T15:15:04.049Z,37.21
2018-07-14T15:20:04.049Z,36.31
2018-07-14T15:25:04.054Z,34.8
2018-07-14T15:30:04.058Z,35.98
2018-07-14T15:35:04.066Z,37.28
2018-07-14T15:40:04.067Z,37.07
2018-07-14T15:45:04.067Z,34.62
2018-07-14T15:50:04.067Z,34.67
2018-07-14T15:55:04.079Z,35.07
2018-07-14T16:00:04.100Z,35.36
2018-07-14T16:05:04.076Z,36.72
2018-07-14T16:10:04.090Z,36.37
2018-07-14T16:15:04.081Z,34.94
2018-07-14T16:20:04.087Z,34.76
2018-07-14T16:25:04.090Z,36.07
2018-07-14T16:30:04.090Z,35.52
2018-07-14T16:35:04.090Z,34.44
2018-07-14T16:40:04.101Z,32.22
2018-07-14T16:45:04.094Z,29.58
2018-07-14T16:50:04.130Z,27.94
2018-07-14T16:55:04.104Z,26.6
2018-07-14T17:00:04.100Z,25.72
2018-07-14T17:05:04.102Z,25.18
2018-07-14T17:10:04.122Z,24.86
2018-07-14T17:15:04.111Z,24.29
2018-07-14T17:20:04.121Z,23.87
2018-07-14T17:25:04.117Z,23.53
2018-07-14T17:30:04.191Z,23.46
2018-07-14T17:35:04.114Z,23.41
2018-07-14T17:40:04.128Z,23.25
2018-07-14T17:45:04.123Z,23.07
2018-07-14T17:50:04.128Z,22.84
2018-07-14T17:55:04.134Z,22.75
2018-07-14T18:00:04.128Z,22.67
2018-07-14T18:05:04.136Z,22.65
2018-07-14T18:10:04.143Z,22.46
2018-07-14T18:15:04.140Z,22.1
2018-07-14T18:20:04.145Z,21.82
2018-07-14T18:25:04.163Z,21.69
2018-07-14T18:30:04.146Z,21.51
2018-07-14T18:35:04.153Z,21.33
2018-07-14T18:40:04.161Z,21.04
2018-07-14T18:45:04.170Z,20.85
2018-07-14T18:50:04.156Z,20.56
2018-07-14T18:55:04.166Z,20.2
2018-07-14T19:00:04.163Z,19.86
2018-07-14T19:05:04.163Z,19.74
2018-07-14T19:10:04.187Z,19.52
2018-07-14T19:15:04.167Z,19.2
2018-07-14T19:20:04.170Z,18.89
2018-07-14T19:25:04.174Z,18.78
2018-07-14T19:30:04.186Z,18.54
2018-07-14T19:35:04.235Z,18.28
2018-07-14T19:40:04.186Z,18.03
2018-07-14T19:45:04.194Z,17.94
2018-07-14T19:50:04.187Z,17.75
2018-07-14T19:55:04.184Z,17.46
2018-07-14T20:00:04.200Z,17.18
2018-07-14T20:05:04.223Z,16.9
2018-07-14T20:10:04.199Z,16.66
2018-07-14T20:15:04.201Z,16.4
2018-07-14T20:20:04.209Z,16.13
2018-07-14T20:25:04.235Z,15.97
2018-07-14T20:30:04.281Z,15.88
2018-07-14T20:35:04.218Z,15.71
2018-07-14T20:40:04.218Z,15.47
2018-07-14T20:45:04.216Z,15.32
2018-07-14T20:50:04.225Z,15.25
2018-07-14T20:55:04.226Z,15.02
2018-07-14T21:00:04.223Z,14.72
2018-07-14T21:05:04.234Z,14.65
2018-07-14T21:10:04.233Z,14.71
2018-07-14T21:15:04.239Z,14.7
2018-07-14T21:20:04.253Z,14.49
2018-07-14T21:25:04.241Z,14.26
2018-07-14T21:30:04.245Z,14.13
2018-07-14T21:35:04.275Z,13.92
2018-07-14T21:40:04.300Z,13.66
2018-07-14T21:45:04.245Z,13.43
2018-07-14T21:50:04.255Z,13.38
2018-07-14T21:55:04.268Z,13.32
2018-07-14T22:00:04.262Z,13.18
2018-07-14T22:05:04.274Z,13.01
2018-07-14T22:10:04.260Z,13.01
2018-07-14T22:15:04.330Z,13.03
2018-07-14T22:20:04.265Z,12.88
2018-07-14T22:25:04.279Z,12.62
2018-07-14T22:30:04.271Z,12.42
2018-07-14T22:35:04.275Z,12.21
2018-07-14T22:40:04.279Z,12.04
2018-07-14T22:45:04.292Z,11.92
2018-07-14T22:50:04.284Z,11.74
2018-07-14T22:55:04.288Z,11.56
2018-07-14T23:00:04.297Z,11.43
2018-07-14T23:05:04.288Z,11.38
2018-07-14T23:10:04.290Z,11.29
2018-07-14T23:15:04.311Z,11.19
2018-07-14T23:20:04.300Z,11.15
2018-07-14T23:25:04.302Z,11.1
2018-07-14T23:30:04.318Z,10.99
2018-07-14T23:35:04.301Z,11.02
2018-07-14T23:40:04.329Z,10.96
2018-07-14T23:45:04.310Z,10.84
2018-07-14T23:50:04.317Z,10.72
2018-07-14T23:55:04.308Z,10.72
